createdAt,value
2019-04-20T00:00:06.148Z,55.20
2019-04-20T00:04:39.015Z,55.10
2019-04-20T00:09:19.343Z,55.10
2019-04-20T00:13:59.474Z,55.40
2019-04-20T00:18:26.889Z,56.00
2019-04-20T00:23:01.673Z,54.50
2019-04-20T00:27:55.592Z,55.50
2019-04-20T00:32:19.987Z,55.40
2019-04-20T00:36:45.347Z,56.30
2019-04-20T00:41:20.324Z,57.20
2019-04-20T00:45:57.347Z,57.90
2019-04-20T00:50:41.782Z,58.30
2019-04-20T00:55:00.074Z,57.80
2019-04-20T00:59:55.246Z,59.30
2019-04-20T01:04:20.201Z,58.30
2019-04-20T01:08:59.248Z,58.50
2019-04-20T01:18:25.090Z,59.70
2019-04-20T01:23:03.294Z,60.20
2019-04-20T01:27:42.571Z,60.70
2019-04-20T01:32:15.008Z,60.80
2019-04-20T01:36:57.566Z,59.60
2019-04-20T01:41:16.132Z,61.10
2019-04-20T01:45:52.262Z,61.30
2019-04-20T01:50:27.707Z,61.90
2019-04-20T01:55:19.588Z,61.90
2019-04-20T01:59:52.028Z,61.50
2019-04-20T02:04:35.992Z,61.50
2019-04-20T02:18:23.128Z,65.10
2019-04-20T02:23:01.864Z,66.50
2019-04-20T02:27:27.034Z,65.70
2019-04-20T02:41:44.302Z,67.20
2019-04-20T02:46:33.378Z,67.70
2019-04-20T02:51:08.454Z,70.10
2019-04-20T03:04:20.539Z,72.80
2019-04-20T03:09:09.005Z,74.50
2019-04-20T03:13:41.436Z,74.90
2019-04-20T03:18:13.899Z,77.60
2019-04-20T03:23:11.164Z,80.60
2019-04-20T03:27:19.418Z,83.40
2019-04-20T03:36:49.535Z,86.30
2019-04-20T03:41:05.188Z,85.70
2019-04-20T03:45:52.670Z,86.20
2019-04-20T03:50:42.400Z,86.90
2019-04-20T03:55:33.779Z,85.90
2019-04-20T04:00:24.991Z,82.20
2019-04-20T04:05:13.548Z,82.20
2019-04-20T04:09:39.736Z,79.90
2019-04-20T04:14:05.021Z,75.70
2019-04-20T04:18:44.744Z,74.80
2019-04-20T04:23:32.303Z,73.30
2019-04-20T04:28:03.869Z,70.00
2019-04-20T04:33:02.974Z,71.00
2019-04-20T04:37:17.994Z,69.80
2019-04-20T04:41:51.207Z,68.20
2019-04-20T04:46:03.988Z,67.80
2019-04-20T04:50:44.621Z,67.10
2019-04-20T04:55:19.958Z,67.80
2019-04-20T04:59:46.790Z,65.80
2019-04-20T05:04:44.532Z,66.00
2019-04-20T05:09:00.147Z,64.90
2019-04-20T05:13:38.081Z,64.10
2019-04-20T05:18:35.751Z,63.50
2019-04-20T05:23:31.930Z,63.60
2019-04-20T05:28:09.381Z,64.30
2019-04-20T05:32:37.868Z,64.10
2019-04-20T05:37:33.063Z,64.60
2019-04-20T05:41:58.180Z,65.00
2019-04-20T05:46:37.345Z,64.90
2019-04-20T05:55:40.099Z,66.50
2019-04-20T06:00:19.190Z,67.40
2019-04-20T06:09:24.000Z,66.50
2019-04-20T06:13:58.032Z,65.30
2019-04-20T06:18:37.219Z,62.80
2019-04-20T06:28:09.076Z,59.90
2019-04-20T06:33:45.033Z,61.10
2019-04-20T06:38:00.880Z,60.20
2019-04-20T06:42:34.286Z,60.00
2019-04-20T06:47:09.344Z,60.80
2019-04-20T06:51:42.736Z,63.40
2019-04-20T06:56:23.671Z,62.00
2019-04-20T07:01:03.888Z,57.80
2019-04-20T07:05:31.785Z,56.20
2019-04-20T07:10:14.727Z,58.00
2019-04-20T07:14:33.100Z,57.30
2019-04-20T07:19:20.096Z,56.20
2019-04-20T07:24:03.572Z,56.40
2019-04-20T07:28:35.344Z,55.10
2019-04-20T07:33:19.936Z,55.50
2019-04-20T07:42:28.971Z,55.40
2019-04-20T07:51:14.494Z,55.30
2019-04-20T08:09:35.002Z,53.70
2019-04-20T08:14:18.100Z,54.00
2019-04-20T08:18:51.315Z,54.50
2019-04-20T08:23:23.214Z,54.20
2019-04-20T08:27:55.022Z,52.70
2019-04-20T08:32:51.818Z,53.60
2019-04-20T08:37:25.777Z,53.00
2019-04-20T08:42:07.436Z,54.30
2019-04-20T08:46:44.590Z,53.60
2019-04-20T08:51:14.262Z,53.80
2019-04-20T08:55:43.901Z,53.30
2019-04-20T09:00:01.527Z,53.30
2019-04-20T09:04:45.138Z,53.20
2019-04-20T09:09:37.926Z,52.50
2019-04-20T09:13:50.123Z,52.90
2019-04-20T09:18:34.363Z,52.00
2019-04-20T09:23:16.893Z,51.00
2019-04-20T09:27:45.853Z,50.60
2019-04-20T09:32:28.704Z,50.90
2019-04-20T09:37:14.181Z,48.70
2019-04-20T09:41:54.805Z,48.70
2019-04-20T09:46:10.125Z,47.80
2019-04-20T09:51:00.882Z,47.50
2019-04-20T10:00:16.827Z,46.40
2019-04-20T10:04:33.438Z,46.60
2019-04-20T10:09:05.147Z,46.60
2019-04-20T10:13:40.532Z,46.80
2019-04-20T10:18:15.149Z,47.30
2019-04-20T10:22:46.695Z,46.50
2019-04-20T10:31:51.421Z,46.60
2019-04-20T10:36:29.827Z,46.60
2019-04-20T10:41:11.470Z,47.30
2019-04-20T10:45:39.131Z,43.80
2019-04-20T10:50:11.569Z,43.60
2019-04-20T10:54:38.416Z,41.70
2019-04-20T10:59:11.885Z,41.30
2019-04-20T11:03:45.104Z,40.20
2019-04-20T11:08:16.902Z,39.90
2019-04-20T11:12:48.469Z,38.60
2019-04-20T11:17:24.688Z,39.00
2019-04-20T11:31:01.935Z,39.40
2019-04-20T11:40:01.387Z,39.50
2019-04-20T11:44:34.855Z,39.70
2019-04-20T11:53:42.654Z,39.40
2019-04-20T11:58:16.286Z,38.00
2019-04-20T12:02:53.815Z,37.90
2019-04-20T12:07:22.553Z,37.30
2019-04-20T12:12:08.251Z,37.50
2019-04-20T12:16:23.600Z,38.10
2019-04-20T12:20:43.000Z,36.80
2019-04-20T12:25:02.575Z,37.00
2019-04-20T12:29:23.672Z,38.50
2019-04-20T12:33:44.308Z,38.00
2019-04-20T12:38:11.240Z,38.10
2019-04-20T12:42:46.645Z,37.70
2019-04-20T12:47:19.691Z,37.90
2019-04-20T12:51:59.258Z,37.10
2019-04-20T12:56:26.646Z,37.00
2019-04-20T13:05:31.870Z,35.70
2019-04-20T13:42:46.156Z,35.70
2019-04-20T13:47:19.120Z,37.70
2019-04-20T14:11:07.303Z,39.40
2019-04-20T14:15:44.872Z,38.90
2019-04-20T14:20:22.019Z,38.70
2019-04-20T14:24:53.274Z,38.20
2019-04-20T14:29:27.209Z,37.50
2019-04-20T14:34:02.595Z,36.80
2019-04-20T15:06:17.739Z,40.80
2019-04-20T15:10:49.593Z,40.30
2019-04-20T15:20:12.216Z,39.90
2019-04-20T15:29:22.229Z,39.60
2019-04-20T15:33:57.125Z,40.30
2019-04-20T15:38:29.133Z,39.90
2019-04-20T16:15:07.483Z,42.80
2019-04-20T16:19:49.357Z,43.00
2019-04-20T16:24:12.976Z,43.30
2019-04-20T16:37:52.743Z,43.10
2019-04-20T16:46:58.328Z,42.60
2019-04-20T16:56:06.608Z,41.90
2019-04-20T17:05:29.152Z,42.80
2019-04-20T17:10:04.362Z,43.30
2019-04-20T17:14:39.798Z,44.30
2019-04-20T17:19:15.989Z,44.00
2019-04-20T17:23:47.252Z,43.40
2019-04-20T17:28:39.111Z,44.60
2019-04-20T17:33:20.586Z,44.60
2019-04-20T17:37:50.371Z,44.40
2019-04-20T17:42:41.239Z,45.30
2019-04-20T18:00:56.025Z,46.60
2019-04-20T18:05:58.567Z,46.40
2019-04-20T18:10:26.054Z,47.20
2019-04-20T18:15:00.754Z,47.30
2019-04-20T18:19:30.955Z,47.90
2019-04-20T18:43:04.934Z,51.40
2019-04-20T18:52:09.331Z,51.30
2019-04-20T19:01:19.289Z,53.50
2019-04-20T19:05:57.958Z,54.00
2019-04-20T19:19:46.800Z,55.90
2019-04-20T19:24:18.285Z,56.80
2019-04-20T19:28:55.763Z,57.50
2019-04-20T19:38:09.605Z,58.70
2019-04-20T19:42:45.268Z,59.20
2019-04-20T19:56:32.423Z,60.70
2019-04-20T20:00:55.932Z,61.30
2019-04-20T20:05:33.714Z,61.40
2019-04-20T20:28:47.065Z,60.90
2019-04-20T20:37:50.130Z,59.80
2019-04-20T20:51:51.363Z,59.70
2019-04-20T20:56:01.915Z,59.40
2019-04-20T21:09:27.113Z,59.00
2019-04-20T21:14:01.349Z,60.10
2019-04-20T21:27:42.765Z,59.90
2019-04-20T21:41:27.867Z,60.90
2019-04-20T21:46:04.958Z,62.10
2019-04-20T21:50:57.490Z,60.90
2019-04-20T21:55:09.924Z,62.60
2019-04-20T21:59:45.512Z,62.70
2019-04-20T22:04:20.058Z,62.90
2019-04-20T22:08:53.055Z,62.20
2019-04-20T22:13:29.559Z,63.40
2019-04-20T22:22:47.157Z,65.50
2019-04-20T22:31:46.210Z,66.90
2019-04-20T22:40:47.417Z,68.20
2019-04-20T22:50:11.861Z,69.30
2019-04-20T22:54:42.276Z,70.30
2019-04-20T22:59:04.235Z,71.10
2019-04-20T23:03:32.687Z,72.30
2019-04-20T23:12:39.940Z,73.30
2019-04-20T23:17:12.473Z,72.70
2019-04-20T23:21:48.602Z,74.40
2019-04-20T23:26:29.319Z,74.60
2019-04-20T23:44:52.110Z,81.70
2019-04-20T23:49:53.324Z,82.30
